createdAt,value
2017-08-15T00:02:08.994Z,58.56
2017-08-15T00:04:37.336Z,58.56
2017-08-15T00:07:05.823Z,59.02
2017-08-15T00:09:35.415Z,58.68
2017-08-15T00:12:03.793Z,58.54
2017-08-15T00:14:32.199Z,58.52
2017-08-15T00:17:01.045Z,59.25
2017-08-15T00:19:29.444Z,59.18
2017-08-15T00:21:57.936Z,59.04
2017-08-15T00:24:26.996Z,59.22
2017-08-15T00:26:55.411Z,59.22
2017-08-15T00:29:23.892Z,58.17
2017-08-15T00:31:52.656Z,58.40
2017-08-15T00:34:21.105Z,58.93
2017-08-15T00:36:49.543Z,58.92
2017-08-15T00:39:18.675Z,58.72
2017-08-15T00:41:47.222Z,59.25
2017-08-15T00:44:16.438Z,59.41
2017-08-15T00:46:45.503Z,60.03
2017-08-15T00:49:13.884Z,59.70
2017-08-15T00:51:42.376Z,59.91
2017-08-15T00:54:11.085Z,60.14
2017-08-15T00:56:40.365Z,59.95
2017-08-15T00:59:08.836Z,60.27
2017-08-15T01:01:37.705Z,60.15
2017-08-15T01:04:06.158Z,60.10
2017-08-15T01:06:34.711Z,60.23
2017-08-15T01:09:04.126Z,59.67
2017-08-15T01:11:32.484Z,59.88
2017-08-15T01:14:00.883Z,59.53
2017-08-15T01:16:29.613Z,59.53
2017-08-15T01:18:58.016Z,59.24
2017-08-15T01:21:26.447Z,58.88
2017-08-15T01:23:55.540Z,58.91
2017-08-15T01:26:23.975Z,58.96
2017-08-15T01:28:52.469Z,59.03
2017-08-15T01:31:21.378Z,58.65
2017-08-15T01:33:50.750Z,58.36
2017-08-15T01:36:19.164Z,59.00
2017-08-15T01:38:48.042Z,59.14
2017-08-15T01:41:16.440Z,59.08
2017-08-15T01:43:44.925Z,59.77
2017-08-15T01:46:13.974Z,59.93
2017-08-15T01:48:42.472Z,60.13
2017-08-15T01:51:10.886Z,60.22
2017-08-15T01:53:39.611Z,59.93
2017-08-15T01:56:08.093Z,60.41
2017-08-15T01:58:36.449Z,61.18
2017-08-15T02:01:05.343Z,60.99
2017-08-15T02:03:33.694Z,60.56
2017-08-15T02:06:02.800Z,61.25
2017-08-15T02:08:32.634Z,61.37
2017-08-15T02:11:00.979Z,61.55
2017-08-15T02:13:30.096Z,61.66
2017-08-15T02:15:58.884Z,61.49
2017-08-15T02:18:27.235Z,61.55
2017-08-15T02:20:56.386Z,62.06
2017-08-15T02:23:25.116Z,62.85
2017-08-15T02:25:53.479Z,62.46
2017-08-15T02:28:21.853Z,62.47
2017-08-15T02:30:51.433Z,63.12
2017-08-15T02:33:19.808Z,63.31
2017-08-15T02:35:48.185Z,63.16
2017-08-15T02:38:17.066Z,62.16
2017-08-15T02:40:45.412Z,62.31
2017-08-15T02:43:15.519Z,62.96
2017-08-15T02:45:44.293Z,62.25
2017-08-15T02:48:12.695Z,62.22
2017-08-15T02:50:41.045Z,62.49
2017-08-15T02:53:09.757Z,62.07
2017-08-15T02:55:38.192Z,62.08
2017-08-15T02:58:06.548Z,62.28
2017-08-15T03:00:35.327Z,62.11
2017-08-15T03:03:04.448Z,62.60
2017-08-15T03:05:32.778Z,63.31
2017-08-15T03:08:01.557Z,63.06
2017-08-15T03:10:29.905Z,62.82
2017-08-15T03:12:58.265Z,63.23
2017-08-15T03:15:27.066Z,63.26
2017-08-15T03:17:55.431Z,63.49
2017-08-15T03:20:23.791Z,64.29
2017-08-15T03:22:53.259Z,64.28
2017-08-15T03:25:21.611Z,65.15
2017-08-15T03:27:49.989Z,64.77
2017-08-15T03:30:18.660Z,64.11
2017-08-15T03:32:47.082Z,63.48
2017-08-15T03:35:15.477Z,64.39
2017-08-15T03:37:44.519Z,64.81
2017-08-15T03:40:12.900Z,64.05
2017-08-15T03:42:41.310Z,64.17
2017-08-15T03:45:10.024Z,63.93
2017-08-15T03:47:38.517Z,64.05
2017-08-15T03:50:07.708Z,63.55
2017-08-15T03:52:36.717Z,63.39
2017-08-15T03:55:05.111Z,63.77
2017-08-15T03:57:33.581Z,63.60
2017-08-15T04:00:02.450Z,63.96
2017-08-15T04:02:30.862Z,63.71
2017-08-15T04:04:59.288Z,63.62
2017-08-15T04:07:28.203Z,64.00
2017-08-15T04:09:56.571Z,64.44
2017-08-15T04:12:24.977Z,64.59
2017-08-15T04:14:55.127Z,63.76
2017-08-15T04:17:23.516Z,63.34
2017-08-15T04:19:51.867Z,63.36
2017-08-15T04:22:20.563Z,63.79
2017-08-15T04:24:49.020Z,63.26
2017-08-15T04:27:18.312Z,63.03
2017-08-15T04:29:47.277Z,64.53
2017-08-15T04:32:15.788Z,64.60
2017-08-15T04:34:44.298Z,65.02
2017-08-15T04:37:13.383Z,63.72
2017-08-15T04:39:41.910Z,63.16
2017-08-15T04:42:10.327Z,63.74
2017-08-15T04:44:39.318Z,62.85
2017-08-15T04:47:07.720Z,62.17
2017-08-15T04:49:36.108Z,61.62
2017-08-15T04:52:05.148Z,62.67
2017-08-15T04:54:33.512Z,61.80
2017-08-15T04:57:01.924Z,60.86
2017-08-15T04:59:30.827Z,59.96
2017-08-15T05:01:59.170Z,59.46
2017-08-15T05:04:27.571Z,58.74
2017-08-15T05:06:56.690Z,58.53
2017-08-15T05:09:25.896Z,58.26
2017-08-15T05:11:54.273Z,58.03
2017-08-15T05:14:22.958Z,57.86
2017-08-15T05:16:52.980Z,57.82
2017-08-15T05:19:21.483Z,57.76
2017-08-15T05:21:50.168Z,59.17
2017-08-15T05:24:18.556Z,58.56
2017-08-15T05:26:47.022Z,58.06
2017-08-15T05:29:15.730Z,58.12
2017-08-15T05:31:44.093Z,58.12
2017-08-15T05:34:12.454Z,59.00
2017-08-15T05:36:42.091Z,58.90
2017-08-15T05:39:10.449Z,58.48
2017-08-15T05:41:39.582Z,58.98
2017-08-15T05:44:08.354Z,58.89
2017-08-15T05:46:36.723Z,59.53
2017-08-15T05:49:05.116Z,59.83
2017-08-15T05:51:34.081Z,59.79
2017-08-15T05:54:03.216Z,58.63
2017-08-15T05:56:31.590Z,59.32
2017-08-15T05:59:00.467Z,58.84
2017-08-15T06:01:28.850Z,59.88
2017-08-15T06:03:57.212Z,60.74
2017-08-15T06:06:25.966Z,60.97
2017-08-15T06:08:54.362Z,60.75
2017-08-15T06:11:22.717Z,61.50
2017-08-15T06:13:51.672Z,62.48
2017-08-15T06:16:20.080Z,61.69
2017-08-15T06:18:48.516Z,61.33
2017-08-15T06:21:17.290Z,62.51
2017-08-15T06:23:46.415Z,61.84
2017-08-15T06:26:14.783Z,61.59
2017-08-15T06:28:43.544Z,60.79
2017-08-15T06:31:11.908Z,60.56
2017-08-15T06:33:40.229Z,61.50
2017-08-15T06:36:08.912Z,60.58
2017-08-15T06:38:37.282Z,60.15
2017-08-15T06:41:05.649Z,60.96
2017-08-15T06:43:34.328Z,61.33
2017-08-15T06:46:02.713Z,60.70
2017-08-15T06:48:31.089Z,60.90
2017-08-15T06:51:00.019Z,61.33
2017-08-15T06:53:28.392Z,60.06
2017-08-15T06:55:56.763Z,59.61
2017-08-15T06:58:25.653Z,59.18
2017-08-15T07:00:54.007Z,60.08
2017-08-15T07:03:22.372Z,60.16
2017-08-15T07:05:51.143Z,61.33
2017-08-15T07:08:19.491Z,61.25
2017-08-15T07:10:47.854Z,60.40
2017-08-15T07:13:16.518Z,60.39
2017-08-15T07:15:44.866Z,60.35
2017-08-15T07:18:13.204Z,59.97
2017-08-15T07:20:42.214Z,60.24
2017-08-15T07:23:10.577Z,59.31
2017-08-15T07:25:38.946Z,58.74
2017-08-15T07:28:07.654Z,57.09
2017-08-15T07:30:35.986Z,56.93
2017-08-15T07:33:04.327Z,56.53
2017-08-15T07:35:32.980Z,57.66
2017-08-15T07:38:01.332Z,58.05
2017-08-15T07:40:29.672Z,57.60
2017-08-15T07:42:58.532Z,57.96
2017-08-15T07:45:26.869Z,57.59
2017-08-15T07:47:55.228Z,57.39
2017-08-15T07:50:23.992Z,56.55
2017-08-15T07:52:52.347Z,56.03
2017-08-15T07:55:20.772Z,56.09
2017-08-15T07:57:49.537Z,55.68
2017-08-15T08:00:17.913Z,55.75
2017-08-15T08:02:46.274Z,54.23
2017-08-15T08:05:15.031Z,54.90
2017-08-15T08:07:43.544Z,54.85
2017-08-15T08:10:11.969Z,54.63
2017-08-15T08:12:40.653Z,54.19
2017-08-15T08:15:09.008Z,53.53
2017-08-15T08:17:37.381Z,53.71
2017-08-15T08:20:06.113Z,54.67
2017-08-15T08:22:34.488Z,53.30
2017-08-15T08:25:02.871Z,53.71
2017-08-15T08:27:31.667Z,53.62
2017-08-15T08:30:00.054Z,53.49
2017-08-15T08:32:28.424Z,53.89
2017-08-15T08:34:57.101Z,53.04
2017-08-15T08:37:25.535Z,52.90
2017-08-15T08:39:54.837Z,52.85
2017-08-15T08:42:23.517Z,52.02
2017-08-15T08:44:51.873Z,50.95
2017-08-15T08:47:20.244Z,50.04
2017-08-15T08:49:49.140Z,50.32
2017-08-15T08:52:17.515Z,50.79
2017-08-15T08:54:45.926Z,49.69
2017-08-15T08:57:14.839Z,48.59
2017-08-15T08:59:43.205Z,48.10
2017-08-15T09:02:11.575Z,48.35
2017-08-15T09:04:40.513Z,46.96
2017-08-15T09:07:08.879Z,46.52
2017-08-15T09:09:37.336Z,45.52
2017-08-15T09:12:06.166Z,45.38
2017-08-15T09:14:34.535Z,45.93
2017-08-15T09:17:02.893Z,44.94
2017-08-15T09:19:31.541Z,44.92
2017-08-15T09:21:59.896Z,44.75
2017-08-15T09:24:28.255Z,44.93
2017-08-15T09:26:56.939Z,44.73
2017-08-15T09:29:25.361Z,44.34
2017-08-15T09:31:53.731Z,44.64
2017-08-15T09:34:22.711Z,44.99
2017-08-15T09:36:51.186Z,44.14
2017-08-15T09:39:19.547Z,42.77
2017-08-15T09:41:48.336Z,42.46
2017-08-15T09:44:16.818Z,41.98
2017-08-15T09:46:45.444Z,41.18
2017-08-15T09:49:14.404Z,41.73
2017-08-15T09:51:42.760Z,41.58
2017-08-15T09:54:11.130Z,42.29
2017-08-15T09:56:40.240Z,42.20
2017-08-15T09:59:09.486Z,41.71
2017-08-15T10:01:37.883Z,41.67
2017-08-15T10:04:06.673Z,41.84
2017-08-15T10:06:35.098Z,40.80
2017-08-15T10:09:03.474Z,41.17
2017-08-15T10:11:32.153Z,40.63
2017-08-15T10:14:00.572Z,40.55
2017-08-15T10:16:29.002Z,40.73
2017-08-15T10:18:57.812Z,40.50
2017-08-15T10:21:26.220Z,38.92
2017-08-15T10:23:54.600Z,39.41
2017-08-15T10:26:23.475Z,39.16
2017-08-15T10:28:51.845Z,38.52
2017-08-15T10:31:20.229Z,37.94
2017-08-15T10:33:48.974Z,36.85
2017-08-15T10:36:18.118Z,36.53
2017-08-15T10:38:46.485Z,37.21
2017-08-15T10:41:15.306Z,38.39
2017-08-15T10:43:43.683Z,38.60
2017-08-15T10:46:12.048Z,37.53
2017-08-15T10:48:40.833Z,37.99
2017-08-15T10:51:09.239Z,37.63
2017-08-15T10:53:37.609Z,37.47
2017-08-15T10:56:06.468Z,38.12
2017-08-15T10:58:34.840Z,37.15
2017-08-15T11:01:03.217Z,37.02
2017-08-15T11:03:32.099Z,36.94
2017-08-15T11:06:00.420Z,37.43
2017-08-15T11:08:28.786Z,38.60
2017-08-15T11:10:57.424Z,38.84
2017-08-15T11:13:26.564Z,39.54
2017-08-15T11:15:54.959Z,39.37
2017-08-15T11:18:23.584Z,39.04
2017-08-15T11:20:51.920Z,37.83
2017-08-15T11:23:20.299Z,37.15
2017-08-15T11:25:49.265Z,37.64
2017-08-15T11:28:17.663Z,39.13
2017-08-15T11:30:46.056Z,38.48
2017-08-15T11:33:14.754Z,38.18
2017-08-15T11:35:43.107Z,38.68
2017-08-15T11:38:11.479Z,38.68
2017-08-15T11:40:40.374Z,38.79
2017-08-15T11:43:08.735Z,36.71
2017-08-15T11:45:37.093Z,36.26
2017-08-15T11:48:06.511Z,35.53
2017-08-15T11:50:34.928Z,36.28
2017-08-15T11:53:03.299Z,36.86
2017-08-15T11:55:32.088Z,36.81
2017-08-15T11:58:00.461Z,37.14
2017-08-15T12:00:28.823Z,36.74
2017-08-15T12:02:57.608Z,34.50
2017-08-15T12:05:26.805Z,32.36
2017-08-15T12:07:55.740Z,32.37
2017-08-15T12:10:24.673Z,32.31
2017-08-15T12:12:53.050Z,33.35
2017-08-15T12:15:21.412Z,33.84
2017-08-15T12:17:50.466Z,32.94
2017-08-15T12:20:19.546Z,32.87
2017-08-15T12:22:48.509Z,33.33
2017-08-15T12:25:17.341Z,34.39
2017-08-15T12:27:46.232Z,35.52
2017-08-15T12:30:14.911Z,37.30
2017-08-15T12:32:44.249Z,38.03
2017-08-15T12:35:12.690Z,37.07
2017-08-15T12:37:41.043Z,37.76
2017-08-15T12:40:09.690Z,37.54
2017-08-15T12:42:38.041Z,37.27
2017-08-15T12:45:06.406Z,36.96
2017-08-15T12:47:35.113Z,36.01
2017-08-15T12:50:03.492Z,35.60
2017-08-15T12:52:31.912Z,36.27
2017-08-15T12:55:01.584Z,36.55
2017-08-15T12:57:29.922Z,37.31
2017-08-15T12:59:58.342Z,37.17
2017-08-15T13:02:27.054Z,37.16
2017-08-15T13:04:55.432Z,38.11
2017-08-15T13:07:23.794Z,38.83
2017-08-15T13:09:52.694Z,38.07
2017-08-15T13:12:21.073Z,37.36
2017-08-15T13:14:49.549Z,36.47
2017-08-15T13:17:18.550Z,36.15
2017-08-15T13:19:46.936Z,37.97
2017-08-15T13:22:15.371Z,38.72
2017-08-15T13:24:45.810Z,38.77
2017-08-15T13:27:14.158Z,39.36
2017-08-15T13:29:42.552Z,38.67
2017-08-15T13:32:11.265Z,38.79
2017-08-15T13:34:39.631Z,39.82
2017-08-15T13:37:08.020Z,40.38
2017-08-15T13:39:37.119Z,39.55
2017-08-15T13:42:05.482Z,39.41
2017-08-15T13:44:33.835Z,39.36
2017-08-15T13:47:02.691Z,39.57
2017-08-15T13:49:31.053Z,39.60
2017-08-15T13:51:59.388Z,40.01
2017-08-15T13:54:28.222Z,40.29
2017-08-15T13:56:56.603Z,40.87
2017-08-15T13:59:24.958Z,40.22
2017-08-15T14:01:53.783Z,40.32
2017-08-15T14:04:22.138Z,40.02
2017-08-15T14:06:50.495Z,41.12
2017-08-15T14:09:19.343Z,41.91
2017-08-15T14:11:47.747Z,41.97
2017-08-15T14:14:16.116Z,41.90
2017-08-15T14:16:44.886Z,42.12
2017-08-15T14:19:13.255Z,41.92
2017-08-15T14:21:41.697Z,41.53
2017-08-15T14:24:10.491Z,40.67
2017-08-15T14:26:38.845Z,40.87
2017-08-15T14:29:07.212Z,41.53
2017-08-15T14:31:35.940Z,40.98
2017-08-15T14:34:04.279Z,40.30
2017-08-15T14:36:32.649Z,39.45
2017-08-15T14:39:01.394Z,39.46
2017-08-15T14:41:29.767Z,39.36
2017-08-15T14:43:58.150Z,38.86
2017-08-15T14:46:27.151Z,38.92
2017-08-15T14:48:55.527Z,38.90
2017-08-15T14:51:23.937Z,38.82
2017-08-15T14:53:52.619Z,39.02
2017-08-15T14:56:21.000Z,39.95
2017-08-15T14:58:49.408Z,39.41
2017-08-15T15:01:18.055Z,39.65
2017-08-15T15:03:46.443Z,40.11
2017-08-15T15:06:14.819Z,40.31
2017-08-15T15:08:43.708Z,39.93
2017-08-15T15:11:12.057Z,40.80
2017-08-15T15:13:40.409Z,41.13
2017-08-15T15:16:09.331Z,41.50
2017-08-15T15:18:37.702Z,40.95
2017-08-15T15:21:06.058Z,41.14
2017-08-15T15:23:34.833Z,39.74
2017-08-15T15:26:03.200Z,38.68
2017-08-15T15:28:31.595Z,37.99
2017-08-15T15:31:00.590Z,38.05
2017-08-15T15:33:28.964Z,38.23
2017-08-15T15:35:57.352Z,37.50
2017-08-15T15:38:26.305Z,38.36
2017-08-15T15:40:54.701Z,38.24
2017-08-15T15:43:23.080Z,38.33
2017-08-15T15:45:52.853Z,38.46
2017-08-15T15:48:21.244Z,37.97
2017-08-15T15:50:49.604Z,37.56
2017-08-15T15:53:18.410Z,37.60
2017-08-15T15:55:46.785Z,37.66
2017-08-15T15:58:15.145Z,38.60
2017-08-15T16:00:43.848Z,39.21
2017-08-15T16:03:12.211Z,39.45
2017-08-15T16:05:40.577Z,40.00
2017-08-15T16:08:09.421Z,39.55
2017-08-15T16:10:37.805Z,39.12
2017-08-15T16:13:06.160Z,38.99
2017-08-15T16:15:34.974Z,39.13
2017-08-15T16:18:03.351Z,39.57
2017-08-15T16:20:31.699Z,40.36
2017-08-15T16:23:00.352Z,40.50
2017-08-15T16:25:28.713Z,40.70
2017-08-15T16:27:57.102Z,41.12
2017-08-15T16:30:26.053Z,41.10
2017-08-15T16:32:54.409Z,41.08
2017-08-15T16:35:22.780Z,42.14
2017-08-15T16:37:51.736Z,41.29
2017-08-15T16:40:20.110Z,41.29
2017-08-15T16:42:48.480Z,41.17
2017-08-15T16:45:17.404Z,41.07
2017-08-15T16:47:45.780Z,41.19
2017-08-15T16:50:14.160Z,41.06
2017-08-15T16:52:42.849Z,41.73
2017-08-15T16:55:11.284Z,41.41
2017-08-15T16:57:39.639Z,41.07
2017-08-15T17:00:08.429Z,41.80
2017-08-15T17:02:36.935Z,42.02
2017-08-15T17:05:05.366Z,42.51
2017-08-15T17:07:34.288Z,42.26
2017-08-15T17:10:02.706Z,42.54
2017-08-15T17:12:31.176Z,42.93
2017-08-15T17:14:59.950Z,43.00
2017-08-15T17:17:28.340Z,42.64
2017-08-15T17:19:56.698Z,43.33
2017-08-15T17:22:25.460Z,43.19
2017-08-15T17:24:54.587Z,43.09
2017-08-15T17:27:22.940Z,43.13
2017-08-15T17:29:51.594Z,42.84
2017-08-15T17:32:19.948Z,43.32
2017-08-15T17:34:48.338Z,43.19
2017-08-15T17:37:17.299Z,43.18
2017-08-15T17:39:45.688Z,43.63
2017-08-15T17:42:14.022Z,43.98
2017-08-15T17:44:43.178Z,44.42
2017-08-15T17:47:11.559Z,44.30
2017-08-15T17:49:39.915Z,44.78
2017-08-15T17:52:08.663Z,45.77
2017-08-15T17:54:37.040Z,45.57
2017-08-15T17:57:05.391Z,45.61
2017-08-15T17:59:34.061Z,46.00
2017-08-15T18:02:02.507Z,46.32
2017-08-15T18:04:30.864Z,46.25
2017-08-15T18:06:59.751Z,46.03
2017-08-15T18:09:28.121Z,45.95
2017-08-15T18:11:56.507Z,45.96
2017-08-15T18:14:25.343Z,46.21
2017-08-15T18:16:53.721Z,46.52
2017-08-15T18:19:22.116Z,46.92
2017-08-15T18:21:50.797Z,47.09
2017-08-15T18:24:19.127Z,48.71
2017-08-15T18:26:47.539Z,54.17
2017-08-15T18:29:16.460Z,58.29
2017-08-15T18:31:44.838Z,62.25
2017-08-15T18:34:13.249Z,65.11
2017-08-15T18:36:41.951Z,64.48
2017-08-15T18:39:10.318Z,65.96
2017-08-15T18:41:38.687Z,67.37
2017-08-15T18:44:07.565Z,67.80
2017-08-15T18:46:35.928Z,69.50
2017-08-15T18:49:04.286Z,68.59
2017-08-15T18:51:33.129Z,68.56
2017-08-15T18:54:01.482Z,69.01
2017-08-15T18:56:29.848Z,68.18
2017-08-15T18:58:58.650Z,68.14
2017-08-15T19:01:27.009Z,67.73
2017-08-15T19:03:55.434Z,68.60
2017-08-15T19:06:24.303Z,66.69
2017-08-15T19:08:52.677Z,66.77
2017-08-15T19:11:21.051Z,67.01
2017-08-15T19:13:49.834Z,67.28
2017-08-15T19:16:18.560Z,66.95
2017-08-15T19:18:46.925Z,67.25
2017-08-15T19:21:15.582Z,67.69
2017-08-15T19:23:43.931Z,67.78
2017-08-15T19:26:13.062Z,68.38
2017-08-15T19:28:41.878Z,69.04
2017-08-15T19:31:10.258Z,69.12
2017-08-15T19:33:38.682Z,69.55
2017-08-15T19:36:07.436Z,69.42
2017-08-15T19:38:35.875Z,67.98
2017-08-15T19:41:04.265Z,67.66
2017-08-15T19:43:33.152Z,68.50
2017-08-15T19:46:01.622Z,68.85
2017-08-15T19:48:30.030Z,67.35
2017-08-15T19:50:58.731Z,67.31
2017-08-15T19:53:27.177Z,67.70
2017-08-15T19:55:55.561Z,68.14
2017-08-15T19:58:24.410Z,67.98
2017-08-15T20:00:52.796Z,68.93
2017-08-15T20:03:21.157Z,70.66
2017-08-15T20:05:49.792Z,71.59
2017-08-15T20:08:18.174Z,71.59
2017-08-15T20:10:46.550Z,71.66
2017-08-15T20:13:15.410Z,71.20
2017-08-15T20:15:44.568Z,70.93
2017-08-15T20:18:12.953Z,71.20
2017-08-15T20:20:41.741Z,72.05
2017-08-15T20:23:10.119Z,71.83
2017-08-15T20:25:38.499Z,71.72
2017-08-15T20:28:07.445Z,72.17
2017-08-15T20:30:35.881Z,72.81
2017-08-15T20:33:04.276Z,72.50
2017-08-15T20:35:32.973Z,71.93
2017-08-15T20:38:01.361Z,72.44
2017-08-15T20:40:29.716Z,71.43
2017-08-15T20:42:59.366Z,70.99
2017-08-15T20:45:27.713Z,70.48
2017-08-15T20:47:56.050Z,69.91
2017-08-15T20:50:24.798Z,70.99
2017-08-15T20:52:53.125Z,70.28
2017-08-15T20:55:21.461Z,69.35
2017-08-15T20:57:50.175Z,69.44
2017-08-15T21:00:18.529Z,68.60
2017-08-15T21:02:46.891Z,68.77
2017-08-15T21:05:16.749Z,68.54
2017-08-15T21:07:45.106Z,68.33
2017-08-15T21:10:13.480Z,69.29
2017-08-15T21:12:42.181Z,69.54
2017-08-15T21:15:10.539Z,68.99
2017-08-15T21:17:38.901Z,68.75
2017-08-15T21:20:07.587Z,67.97
2017-08-15T21:22:36.119Z,68.22
2017-08-15T21:25:04.497Z,68.11
2017-08-15T21:27:33.481Z,67.86
2017-08-15T21:30:01.860Z,67.86
2017-08-15T21:32:30.198Z,68.50
2017-08-15T21:34:59.137Z,68.43
2017-08-15T21:37:27.497Z,68.63
2017-08-15T21:39:55.856Z,69.13
2017-08-15T21:42:24.525Z,69.62
2017-08-15T21:44:52.874Z,70.34
2017-08-15T21:47:21.244Z,70.46
2017-08-15T21:49:50.468Z,71.56
2017-08-15T21:52:18.896Z,72.08
2017-08-15T21:54:47.251Z,71.91
2017-08-15T21:57:16.707Z,72.34
2017-08-15T21:59:45.058Z,72.75
2017-08-15T22:02:19.027Z,73.45
2017-08-15T22:04:47.388Z,74.82
2017-08-15T22:07:15.763Z,75.42
2017-08-15T22:09:44.622Z,75.95
2017-08-15T22:12:12.991Z,76.02
2017-08-15T22:14:42.133Z,75.93
2017-08-15T22:17:10.763Z,75.72
2017-08-15T22:19:39.950Z,76.06
2017-08-15T22:22:08.308Z,76.41
2017-08-15T22:24:37.179Z,76.85
2017-08-15T22:27:05.541Z,76.64
2017-08-15T22:29:33.890Z,77.22
2017-08-15T22:32:03.108Z,76.13
2017-08-15T22:34:31.467Z,76.29
2017-08-15T22:36:59.848Z,76.31
2017-08-15T22:39:29.450Z,76.15
2017-08-15T22:41:57.807Z,75.63
2017-08-15T22:44:27.003Z,75.09
2017-08-15T22:46:55.641Z,74.35
2017-08-15T22:49:24.023Z,73.25
2017-08-15T22:51:52.392Z,73.18
2017-08-15T22:54:21.180Z,73.05
2017-08-15T22:56:49.531Z,72.83
2017-08-15T22:59:17.878Z,72.96
2017-08-15T23:01:46.657Z,72.58
2017-08-15T23:04:15.042Z,72.18
2017-08-15T23:06:43.425Z,72.34
2017-08-15T23:09:12.297Z,72.52
2017-08-15T23:11:40.675Z,72.29
2017-08-15T23:14:09.067Z,72.06
2017-08-15T23:16:38.046Z,71.76
2017-08-15T23:19:07.139Z,71.97
2017-08-15T23:21:35.504Z,72.33
2017-08-15T23:24:04.205Z,72.05
2017-08-15T23:26:32.584Z,71.58
2017-08-15T23:29:00.950Z,72.08
2017-08-15T23:31:29.655Z,72.24
2017-08-15T23:33:57.987Z,72.95
2017-08-15T23:36:27.116Z,72.96
2017-08-15T23:38:56.334Z,72.56
2017-08-15T23:41:24.726Z,72.50
2017-08-15T23:43:53.092Z,72.17
2017-08-15T23:46:21.978Z,72.84
2017-08-15T23:48:50.344Z,72.95
2017-08-15T23:51:18.691Z,73.16
2017-08-15T23:53:47.412Z,73.97
2017-08-15T23:56:15.783Z,73.17
2017-08-15T23:58:44.158Z,73.18
